Time;durP1;ratioP1;P1;durP2;ratioP2;P2;SDS_P1;SDS_P2;PMS_P1;PMS_P2;Temp;Humidity;BMP_temperature;BMP_pressure;BME280_temperature;BME280_humidity;BME280_pressure;Samples;Min_cycle;Max_cycle;Signal;HPM_P1;HPM_P2
2023/10/14 00:01:34;;;;;;;2.42;1.80;;;20.40;96.20;;;;;;4955175;28;20578;-42
2023/10/14 00:04:04;;;;;;;2.63;1.48;;;20.40;96.10;;;;;;4956285;29;20042;-42
2023/10/14 00:06:30;;;;;;;2.90;1.70;;;20.40;96.20;;;;;;4938792;29;20406;-41
2023/10/14 00:11:22;;;;;;;2.40;1.60;;;20.40;96.50;;;;;;4956018;29;20413;-42
2023/10/14 00:13:49;;;;;;;3.38;1.98;;;20.40;96.20;;;;;;4956085;29;20102;-46
2023/10/14 00:18:55;;;;;;;2.15;1.67;;;20.40;96.30;;;;;;4956018;29;20078;-40
2023/10/14 00:21:25;;;;;;;3.08;1.70;;;20.50;96.30;;;;;;4955960;29;20043;-43
2023/10/14 00:23:55;;;;;;;3.72;1.75;;;20.50;96.30;;;;;;4955702;29;20492;-43
2023/10/14 00:26:23;;;;;;;3.85;1.65;;;20.40;96.30;;;;;;4938418;29;20033;-43
2023/10/14 00:28:54;;;;;;;2.55;1.80;;;20.40;96.30;;;;;;4956020;29;20090;-41
2023/10/14 00:31:23;;;;;;;2.90;1.73;;;20.40;96.30;;;;;;4956047;29;20086;-47
2023/10/14 00:33:52;;;;;;;2.22;1.73;;;20.40;96.40;;;;;;4956106;29;20029;-44
2023/10/14 00:36:22;;;;;;;3.03;2.13;;;20.40;96.40;;;;;;4955389;29;20098;-46
2023/10/14 00:38:55;;;;;;;5.65;1.90;;;20.50;96.40;;;;;;4955517;29;20027;-45
2023/10/14 00:41:25;;;;;;;2.42;1.70;;;20.40;96.40;;;;;;4955678;29;20036;-42
2023/10/14 00:43:51;;;;;;;5.20;1.60;;;20.40;96.40;;;;;;4955513;29;20038;-43
2023/10/14 00:46:17;;;;;;;3.15;2.00;;;20.40;96.50;;;;;;4955283;29;20508;-42
2023/10/14 00:48:47;;;;;;;4.65;2.10;;;20.40;96.50;;;;;;4955202;29;20473;-40
2023/10/14 00:51:19;;;;;;;3.33;2.05;;;20.40;96.50;;;;;;4955328;29;20090;-44
2023/10/14 00:53:52;;;;;;;3.22;2.10;;;20.40;96.50;;;;;;4955347;29;20027;-42
2023/10/14 00:56:27;;;;;;;2.95;1.83;;;20.40;96.50;;;;;;4955162;29;20020;-46
2023/10/14 00:59:03;;;;;;;4.97;1.83;;;20.40;96.50;;;;;;4955222;29;20035;-42
2023/10/14 01:01:48;;;;;;;3.47;2.13;;;20.40;96.60;;;;;;4955054;29;20082;-44
2023/10/14 01:04:20;;;;;;;2.20;1.70;;;20.40;96.60;;;;;;4955130;29;20481;-45
2023/10/14 01:09:52;;;;;;;4.95;2.25;;;20.40;96.70;;;;;;4955165;29;20023;-41
2023/10/14 01:15:21;;;;;;;3.40;1.95;;;20.40;96.80;;;;;;4955211;29;20152;-40
2023/10/14 01:17:48;;;;;;;3.35;2.08;;;20.40;96.90;;;;;;4954949;29;20098;-42
2023/10/14 01:22:43;;;;;;;3.35;2.40;;;20.40;97.00;;;;;;4954925;29;20066;-41
2023/10/14 01:25:15;;;;;;;3.03;2.35;;;20.40;97.00;;;;;;4954730;29;20023;-40
2023/10/14 01:27:43;;;;;;;3.42;2.03;;;20.40;97.10;;;;;;4954668;29;20034;-41
2023/10/14 01:30:19;;;;;;;2.67;2.20;;;20.40;97.10;;;;;;4937271;29;20559;-42
2023/10/14 01:35:31;;;;;;;3.50;2.20;;;20.40;97.20;;;;;;4954389;29;20024;-41
2023/10/14 01:37:58;;;;;;;4.97;2.28;;;20.40;97.20;;;;;;4954489;29;20027;-39
2023/10/14 01:42:57;;;;;;;3.55;2.30;;;20.40;97.30;;;;;;4954325;29;20031;-40
2023/10/14 01:45:35;;;;;;;3.15;2.15;;;20.40;97.30;;;;;;4954161;29;20019;-41
2023/10/14 01:48:11;;;;;;;7.78;2.58;;;20.40;97.30;;;;;;4954282;29;20031;-40
2023/10/14 01:50:55;;;;;;;2.55;2.15;;;20.40;97.40;;;;;;4954378;29;20126;-41
2023/10/14 01:53:27;;;;;;;4.28;2.25;;;20.40;97.40;;;;;;4954211;29;20102;-40
2023/10/14 01:56:00;;;;;;;4.78;2.10;;;20.30;97.40;;;;;;4954005;29;20749;-40
2023/10/14 01:58:32;;;;;;;3.15;2.42;;;20.40;97.50;;;;;;4954297;29;20035;-40
2023/10/14 02:03:33;;;;;;;4.47;2.53;;;20.40;97.50;;;;;;4954224;29;20059;-40
2023/10/14 02:06:02;;;;;;;3.38;2.40;;;20.30;97.50;;;;;;4953680;29;20024;-40
2023/10/14 02:08:28;;;;;;;3.05;2.42;;;20.40;97.50;;;;;;4936855;29;20047;-41
2023/10/14 02:10:54;;;;;;;5.82;2.40;;;20.40;97.50;;;;;;4953909;29;20027;-40
2023/10/14 02:13:22;;;;;;;4.18;2.28;;;20.30;97.60;;;;;;4954008;29;20015;-35
2023/10/14 02:15:50;;;;;;;4.65;2.65;;;20.40;97.60;;;;;;4953792;29;20051;-35
2023/10/14 02:18:25;;;;;;;3.75;2.53;;;20.30;97.60;;;;;;4953686;29;20105;-35
2023/10/14 02:21:05;;;;;;;5.57;2.15;;;20.40;98.00;;;;;;4954020;29;20028;-40
2023/10/14 02:23:45;;;;;;;4.00;2.38;;;20.40;97.70;;;;;;4936532;29;20031;-36
2023/10/14 02:26:27;;;;;;;3.85;2.38;;;20.40;97.70;;;;;;4953609;29;20027;-36
2023/10/14 02:28:54;;;;;;;6.28;2.88;;;20.40;97.70;;;;;;4953348;29;20041;-39
2023/10/14 02:33:57;;;;;;;3.83;2.20;;;20.30;97.70;;;;;;4953612;29;20019;-38
2023/10/14 02:36:29;;;;;;;3.75;2.58;;;20.40;97.80;;;;;;4953351;29;20019;-36
2023/10/14 02:38:56;;;;;;;5.55;2.70;;;20.40;97.80;;;;;;4953477;29;20050;-36
2023/10/14 02:41:32;;;;;;;4.63;2.85;;;20.30;97.80;;;;;;4936370;29;20106;-36
2023/10/14 02:44:44;;;;;;;6.07;2.80;;;20.40;97.90;;;;;;4953393;29;20114;-36
2023/10/14 02:46:54;;;;;;;3.67;2.60;;;20.40;97.90;;;;;;4942818;29;20039;-35
2023/10/14 02:49:24;;;;;;;5.13;2.70;;;20.30;97.80;;;;;;4953407;29;20362;-37
2023/10/14 02:51:52;;;;;;;5.18;2.75;;;20.40;97.90;;;;;;4953301;29;20027;-38
2023/10/14 02:54:27;;;;;;;3.50;2.45;;;20.30;97.90;;;;;;4953317;29;20024;-37
2023/10/14 02:57:00;;;;;;;4.60;2.45;;;20.40;97.90;;;;;;4953178;29;20422;-37
2023/10/14 03:02:16;;;;;;;3.50;2.63;;;20.30;98.00;;;;;;4953183;29;20477;-38
2023/10/14 03:07:28;;;;;;;3.30;2.55;;;20.30;98.00;;;;;;4953388;29;20480;-37
2023/10/14 03:10:10;;;;;;;5.20;2.97;;;20.30;98.00;;;;;;4953368;29;20038;-39
2023/10/14 03:12:39;;;;;;;4.25;2.90;;;20.30;98.00;;;;;;4953037;29;20094;-38
2023/10/14 03:15:19;;;;;;;4.05;2.78;;;20.30;98.10;;;;;;4953016;29;20047;-37
2023/10/14 03:17:53;;;;;;;3.72;2.83;;;20.30;98.10;;;;;;4953051;29;20075;-38
2023/10/14 03:22:59;;;;;;;4.35;2.67;;;20.30;98.10;;;;;;4953019;29;20441;-37
2023/10/14 03:25:25;;;;;;;4.80;2.80;;;20.30;98.10;;;;;;4952981;29;20111;-38
2023/10/14 03:27:58;;;;;;;6.78;2.92;;;20.30;98.20;;;;;;4953160;29;20110;-39
2023/10/14 03:30:24;;;;;;;6.47;2.80;;;20.30;98.20;;;;;;4953028;29;20078;-38
2023/10/14 03:32:49;;;;;;;4.13;2.60;;;20.30;98.20;;;;;;4952971;29;20039;-38
2023/10/14 03:35:21;;;;;;;4.05;2.72;;;20.30;98.20;;;;;;4953502;28;20026;-37
2023/10/14 03:37:54;;;;;;;5.30;3.30;;;20.30;98.30;;;;;;4956560;29;20043;-37
2023/10/14 03:40:38;;;;;;;3.63;2.70;;;20.30;98.30;;;;;;4956592;29;20031;-37
2023/10/14 03:43:14;;;;;;;4.03;2.60;;;20.30;98.30;;;;;;4956663;29;20031;-37
2023/10/14 03:48:29;;;;;;;3.78;2.70;;;20.30;98.30;;;;;;4956471;29;20163;-37
2023/10/14 03:51:03;;;;;;;6.20;3.00;;;20.30;98.30;;;;;;4956493;29;20109;-38
2023/10/14 03:53:32;;;;;;;4.65;2.75;;;20.30;98.40;;;;;;4956503;29;20033;-37
2023/10/14 03:56:03;;;;;;;5.00;2.80;;;20.30;98.70;;;;;;4956177;29;20034;-37
2023/10/14 03:58:37;;;;;;;4.68;2.80;;;20.30;98.40;;;;;;4956247;29;20031;-38
2023/10/14 04:01:03;;;;;;;5.80;2.80;;;20.30;98.40;;;;;;4956380;29;20143;-41
2023/10/14 04:03:41;;;;;;;6.15;2.90;;;20.30;98.50;;;;;;4956332;29;20106;-40
2023/10/14 04:06:15;;;;;;;3.80;2.58;;;20.30;98.50;;;;;;4938797;29;20508;-43
2023/10/14 04:08:47;;;;;;;6.15;2.83;;;20.30;98.50;;;;;;4956119;29;20089;-38
2023/10/14 04:11:25;;;;;;;5.50;2.70;;;20.30;98.50;;;;;;4956065;29;20532;-38
2023/10/14 04:14:02;;;;;;;4.50;3.00;;;20.30;98.50;;;;;;4956103;29;20558;-37
2023/10/14 04:16:36;;;;;;;5.05;3.03;;;20.30;98.50;;;;;;4955862;29;20023;-38
2023/10/14 04:19:16;;;;;;;3.35;2.53;;;20.30;98.50;;;;;;4955956;29;20106;-38
2023/10/14 04:21:50;;;;;;;3.75;2.90;;;20.30;98.90;;;;;;4938735;29;20035;-38
2023/10/14 04:26:48;;;;;;;4.45;2.80;;;20.30;98.60;;;;;;4955642;29;20429;-37
2023/10/14 04:29:21;;;;;;;4.47;2.80;;;20.30;98.60;;;;;;4955700;29;20440;-38
2023/10/14 04:31:56;;;;;;;5.70;3.20;;;20.30;98.60;;;;;;4955721;29;20662;-37
2023/10/14 04:34:22;;;;;;;;;;;20.30;98.70;;;;;;4956407;29;20050;-38
2023/10/14 04:36:54;;;;;;;4.03;3.25;;;20.30;98.60;;;;;;4955507;29;19910;-37
2023/10/14 04:39:26;;;;;;;4.10;2.60;;;20.30;98.70;;;;;;4955492;29;20035;-45
2023/10/14 04:41:55;;;;;;;5.80;3.00;;;20.30;98.70;;;;;;4955857;29;20435;-45
2023/10/14 04:44:34;;;;;;;4.25;2.85;;;20.30;98.80;;;;;;4955363;29;20425;-42
2023/10/14 04:47:01;;;;;;;3.80;2.85;;;20.30;98.70;;;;;;4954228;28;20027;-42
2023/10/14 04:49:42;;;;;;;3.53;2.80;;;20.20;98.70;;;;;;4955319;29;20019;-38
2023/10/14 04:52:08;;;;;;;4.28;3.17;;;20.30;98.70;;;;;;4955245;29;20031;-38
2023/10/14 04:54:34;;;;;;;4.95;3.00;;;20.30;98.80;;;;;;4955224;29;20025;-40
2023/10/14 04:57:20;;;;;;;5.80;3.35;;;20.20;98.70;;;;;;4937842;29;20082;-40
2023/10/14 04:59:51;;;;;;;6.70;3.60;;;20.30;98.80;;;;;;4955305;29;20019;-46
2023/10/14 05:02:20;;;;;;;4.93;2.92;;;20.30;98.80;;;;;;4955397;29;20110;-41
2023/10/14 05:04:50;;;;;;;4.13;2.78;;;20.30;98.70;;;;;;4955589;29;20102;-40
2023/10/14 05:07:16;;;;;;;5.82;3.00;;;20.30;98.80;;;;;;4954999;29;20042;-40
2023/10/14 05:09:49;;;;;;;4.20;3.08;;;20.20;98.80;;;;;;4954957;29;20027;-40
2023/10/14 05:12:18;;;;;;;5.07;2.65;;;20.30;98.80;;;;;;4955041;29;20034;-37
2023/10/14 05:14:43;;;;;;;4.20;2.92;;;20.30;98.80;;;;;;4954919;29;20023;-37
2023/10/14 05:17:16;;;;;;;4.05;2.83;;;20.30;98.70;;;;;;4954805;29;20038;-37
2023/10/14 05:19:43;;;;;;;4.30;2.65;;;20.30;98.80;;;;;;4954710;29;20106;-37
2023/10/14 05:22:19;;;;;;;5.22;3.05;;;20.20;98.80;;;;;;4954827;29;20456;-37
2023/10/14 05:24:49;;;;;;;7.43;3.17;;;20.20;98.70;;;;;;4937371;29;20042;-37
2023/10/14 05:27:17;;;;;;;4.38;3.20;;;20.20;98.80;;;;;;4954704;29;20078;-38
2023/10/14 05:29:50;;;;;;;5.78;3.13;;;20.30;98.80;;;;;;4954556;29;20106;-37
2023/10/14 05:32:24;;;;;;;7.05;3.03;;;20.30;98.80;;;;;;4954583;29;20029;-38
2023/10/14 05:34:50;;;;;;;4.07;2.73;;;20.20;99.10;;;;;;4954601;29;20544;-40
2023/10/14 05:37:16;;;;;;;4.20;2.85;;;20.20;98.80;;;;;;4954635;29;20580;-40
2023/10/14 05:39:42;;;;;;;6.20;2.80;;;20.20;98.80;;;;;;4937132;29;20126;-38
2023/10/14 05:42:16;;;;;;;5.35;2.95;;;20.20;98.80;;;;;;4937294;29;20075;-37
2023/10/14 05:44:49;;;;;;;;;;;20.20;98.80;;;;;;4954682;29;20026;-37
2023/10/14 05:47:16;;;;;;;3.90;2.75;;;20.20;98.70;;;;;;4954340;29;20372;-38
2023/10/14 05:49:45;;;;;;;4.18;2.95;;;20.20;98.80;;;;;;4954131;29;20396;-37
2023/10/14 05:52:12;;;;;;;3.33;2.50;;;20.20;98.80;;;;;;4954374;29;20041;-37
2023/10/14 05:54:45;;;;;;;6.65;3.00;;;20.20;98.80;;;;;;4954151;29;20396;-37
2023/10/14 05:57:11;;;;;;;4.63;2.72;;;20.20;98.80;;;;;;4954006;29;20027;-37
2023/10/14 05:59:37;;;;;;;4.45;3.10;;;20.20;98.80;;;;;;4953699;28;20425;-38
2023/10/14 06:02:07;;;;;;;3.47;2.72;;;20.20;98.80;;;;;;4954090;29;20078;-37
2023/10/14 06:04:39;;;;;;;3.88;2.60;;;20.20;98.80;;;;;;4954416;29;20028;-38
2023/10/14 06:07:09;;;;;;;5.43;2.65;;;20.20;98.80;;;;;;4953937;29;20031;-39
2023/10/14 06:09:38;;;;;;;5.00;2.80;;;20.20;98.80;;;;;;4953740;29;20092;-37
2023/10/14 06:12:14;;;;;;;4.05;2.97;;;20.20;98.80;;;;;;4953942;29;20023;-38
2023/10/14 06:14:44;;;;;;;4.43;2.70;;;20.20;98.80;;;;;;4953899;29;20433;-38
2023/10/14 06:17:11;;;;;;;5.10;3.08;;;20.20;98.80;;;;;;4936569;29;20023;-39
2023/10/14 06:19:37;;;;;;;4.30;2.75;;;20.20;98.80;;;;;;4953851;29;20141;-37
2023/10/14 06:22:03;;;;;;;5.10;2.70;;;20.20;98.80;;;;;;4953810;29;20401;-38
2023/10/14 06:24:29;;;;;;;4.68;2.85;;;20.20;98.80;;;;;;4953581;29;20110;-37
2023/10/14 06:27:07;;;;;;;4.45;2.70;;;20.20;98.80;;;;;;4953603;29;20118;-37
2023/10/14 06:29:35;;;;;;;4.05;2.63;;;20.20;98.80;;;;;;4953584;29;20110;-37
2023/10/14 06:32:03;;;;;;;3.28;2.47;;;20.20;98.80;;;;;;4936479;29;20110;-37
2023/10/14 06:34:31;;;;;;;5.85;3.10;;;20.20;98.80;;;;;;4953578;29;20102;-37
2023/10/14 06:37:01;;;;;;;3.88;2.50;;;20.20;98.80;;;;;;4953417;29;20032;-37
2023/10/14 06:39:27;;;;;;;5.20;2.80;;;20.20;98.80;;;;;;4953479;29;20034;-38
2023/10/14 06:41:53;;;;;;;6.10;2.95;;;20.20;98.80;;;;;;4953473;29;20400;-37
2023/10/14 06:44:26;;;;;;;5.88;2.40;;;20.20;98.80;;;;;;4953503;29;20111;-37
2023/10/14 06:46:53;;;;;;;4.40;2.97;;;20.20;98.80;;;;;;4953435;29;20039;-37
2023/10/14 06:49:22;;;;;;;5.70;2.90;;;20.20;98.80;;;;;;4953563;29;20039;-39
2023/10/14 06:51:51;;;;;;;4.13;2.50;;;20.20;98.80;;;;;;4953412;29;20019;-42
2023/10/14 06:54:25;;;;;;;3.05;2.28;;;20.20;98.80;;;;;;4953405;29;20027;-40
2023/10/14 06:56:51;;;;;;;4.13;2.53;;;20.20;98.80;;;;;;4953370;29;20024;-41
2023/10/14 06:59:17;;;;;;;4.28;2.63;;;20.20;98.80;;;;;;4953207;29;20106;-43
2023/10/14 07:01:43;;;;;;;5.18;2.97;;;20.20;98.80;;;;;;4953137;29;20520;-40
2023/10/14 07:04:12;;;;;;;3.92;2.55;;;20.20;98.80;;;;;;4953158;29;20043;-43
2023/10/14 07:06:42;;;;;;;5.40;2.40;;;20.20;98.80;;;;;;4953201;29;20074;-43
2023/10/14 07:09:17;;;;;;;6.38;2.53;;;20.20;98.90;;;;;;4953100;28;20046;-42
2023/10/14 07:11:43;;;;;;;3.63;2.33;;;20.20;98.90;;;;;;4956320;29;20507;-39
2023/10/14 07:14:08;;;;;;;5.40;2.50;;;20.20;98.80;;;;;;4957084;29;20035;-43
2023/10/14 07:16:35;;;;;;;9.32;2.97;;;20.20;98.80;;;;;;4956902;29;20034;-42
2023/10/14 07:19:01;;;;;;;9.07;3.28;;;20.20;99.90;;;;;;4957002;29;20031;-39
2023/10/14 07:21:26;;;;;;;7.43;3.40;;;20.20;99.90;;;;;;4956995;29;20488;-41
2023/10/14 07:23:52;;;;;;;10.40;3.00;;;20.10;99.90;;;;;;4957105;29;20079;-40
2023/10/14 07:26:18;;;;;;;6.38;3.30;;;20.10;99.90;;;;;;4956837;29;20031;-41
2023/10/14 07:28:44;;;;;;;5.88;2.80;;;20.10;99.80;;;;;;4956802;29;20037;-42
2023/10/14 07:31:10;;;;;;;9.23;3.30;;;20.20;99.80;;;;;;4956984;29;20057;-40
2023/10/14 07:33:38;;;;;;;9.75;2.83;;;20.10;99.70;;;;;;4939650;29;20043;-39
2023/10/14 07:36:06;;;;;;;7.53;3.10;;;20.10;99.70;;;;;;4956595;29;20496;-42
2023/10/14 07:38:35;;;;;;;13.95;3.20;;;20.10;99.70;;;;;;4956520;29;20488;-44
2023/10/14 07:41:01;;;;;;;6.80;2.92;;;20.20;99.90;;;;;;4957205;29;20261;-35
2023/10/14 07:43:27;;;;;;;9.23;2.97;;;20.20;99.90;;;;;;4956622;29;20474;-37
2023/10/14 07:45:53;;;;;;;11.38;3.33;;;20.10;99.90;;;;;;4956510;29;20031;-35
2023/10/14 07:48:19;;;;;;;9.68;2.75;;;20.00;99.90;;;;;;4956434;29;20027;-35
2023/10/14 07:50:48;;;;;;;14.23;3.75;;;20.00;99.90;;;;;;4956456;29;20555;-35
2023/10/14 07:53:15;;;;;;;9.95;2.70;;;19.90;99.90;;;;;;4956519;29;20031;-35
2023/10/14 07:55:49;;;;;;;8.85;3.03;;;19.90;99.90;;;;;;4956267;29;20429;-39
2023/10/14 07:58:18;;;;;;;11.93;2.85;;;19.90;99.90;;;;;;4956258;29;20019;-38
2023/10/14 08:00:52;;;;;;;10.00;3.28;;;19.90;99.90;;;;;;4956262;29;20031;-39
2023/10/14 08:03:31;;;;;;;4.43;2.67;;;19.90;99.90;;;;;;4956368;29;20478;-38
2023/10/14 08:06:05;;;;;;;7.70;2.60;;;19.90;99.90;;;;;;4956183;29;20472;-41
2023/10/14 08:08:31;;;;;;;5.30;2.63;;;19.90;99.90;;;;;;4956020;29;20388;-38
2023/10/14 08:10:59;;;;;;;4.88;1.73;;;20.00;99.90;;;;;;4956141;29;20035;-38
2023/10/14 08:13:25;;;;;;;5.63;2.72;;;19.90;99.90;;;;;;4955986;29;20028;-40
2023/10/14 08:15:52;;;;;;;8.68;2.40;;;19.90;99.90;;;;;;4955817;29;20024;-39
2023/10/14 08:18:19;;;;;;;4.50;1.60;;;19.90;99.90;;;;;;4955866;29;20023;-38
2023/10/14 08:20:45;;;;;;;10.57;1.83;;;19.80;99.90;;;;;;4955628;28;20027;-38
2023/10/14 08:23:12;;;;;;;4.57;1.50;;;19.70;99.90;;;;;;4938477;29;20417;-37
2023/10/14 08:25:39;;;;;;;5.35;1.60;;;19.70;99.90;;;;;;4956051;29;20034;-40
2023/10/14 08:28:08;;;;;;;3.17;1.30;;;19.60;99.90;;;;;;4955840;29;20023;-39
2023/10/14 08:30:45;;;;;;;3.75;1.77;;;19.60;99.90;;;;;;4956310;29;20456;-38
2023/10/14 08:33:14;;;;;;;5.15;1.67;;;19.60;99.90;;;;;;4956574;29;20127;-39
2023/10/14 08:35:42;;;;;;;6.20;1.85;;;19.50;99.90;;;;;;4955654;29;20556;-39
2023/10/14 08:38:13;;;;;;;4.88;1.50;;;19.50;99.90;;;;;;4955796;29;20091;-39
2023/10/14 08:40:40;;;;;;;4.15;1.63;;;19.50;99.90;;;;;;4955551;29;20030;-40
2023/10/14 08:43:09;;;;;;;6.30;2.10;;;19.60;99.90;;;;;;4955593;29;20027;-38
2023/10/14 08:45:47;;;;;;;12.75;2.30;;;19.60;99.90;;;;;;4955558;29;20248;-36
2023/10/14 08:48:16;;;;;;;36.35;3.08;;;19.60;99.90;;;;;;4955356;29;20081;-38
2023/10/14 08:50:43;;;;;;;10.20;2.45;;;19.70;99.90;;;;;;4955426;29;20026;-37
2023/10/14 08:53:22;;;;;;;6.35;2.80;;;19.80;99.90;;;;;;4955512;29;20027;-38
2023/10/14 08:55:48;;;;;;;11.95;3.33;;;19.80;99.90;;;;;;4955333;29;20024;-41
2023/10/14 08:58:14;;;;;;;10.77;3.13;;;19.80;99.90;;;;;;4955301;29;20023;-39
2023/10/14 09:00:42;;;;;;;15.63;3.67;;;19.80;99.90;;;;;;4955280;28;20059;-40
2023/10/14 09:03:09;;;;;;;10.07;3.15;;;19.80;99.90;;;;;;4955431;29;20156;-37
2023/10/14 09:05:40;;;;;;;7.03;2.70;;;19.80;99.90;;;;;;4955170;29;20051;-39
2023/10/14 09:08:07;;;;;;;10.63;2.85;;;19.80;99.90;;;;;;4955235;29;20023;-39
2023/10/14 09:10:36;;;;;;;8.23;2.47;;;19.80;99.90;;;;;;4954948;29;20106;-37
2023/10/14 09:13:05;;;;;;;26.77;3.28;;;19.80;99.90;;;;;;4954919;29;20023;-37
2023/10/14 09:15:32;;;;;;;7.95;2.47;;;19.80;99.90;;;;;;4954903;29;20567;-40
2023/10/14 09:17:59;;;;;;;5.47;1.95;;;19.80;99.90;;;;;;4955071;29;20027;-38
2023/10/14 09:20:30;;;;;;;6.57;1.50;;;19.80;99.90;;;;;;4954681;29;20440;-38
2023/10/14 09:23:21;;;;;;;5.70;0.57;;;19.70;99.90;;;;;;4954866;29;20389;-38
2023/10/14 09:26:01;;;;;;;5.15;1.10;;;19.60;99.90;;;;;;4955078;29;20070;-38
2023/10/14 09:28:34;;;;;;;5.50;0.90;;;19.50;99.90;;;;;;4955433;29;20034;-37
2023/10/14 09:31:07;;;;;;;5.32;0.90;;;19.40;99.90;;;;;;4955621;29;20047;-37
2023/10/14 09:33:42;;;;;;;7.43;1.10;;;19.40;99.90;;;;;;4954212;28;20359;-37
2023/10/14 09:36:14;;;;;;;7.35;1.35;;;19.40;99.90;;;;;;4954434;29;20024;-38
2023/10/14 09:38:41;;;;;;;1.85;0.70;;;19.50;99.90;;;;;;4954489;29;20041;-38
2023/10/14 09:41:10;;;;;;;4.30;1.00;;;19.60;99.90;;;;;;4954556;29;20034;-37
2023/10/14 09:43:39;;;;;;;3.20;0.70;;;19.60;99.90;;;;;;4954515;29;20031;-37
2023/10/14 09:46:09;;;;;;;6.63;1.00;;;19.60;99.90;;;;;;4954176;29;20097;-38
2023/10/14 09:48:35;;;;;;;6.95;0.98;;;19.70;99.90;;;;;;4954029;29;20031;-40
2023/10/14 09:51:03;;;;;;;4.20;0.90;;;19.70;99.90;;;;;;4954345;29;20543;-37
2023/10/14 09:53:32;;;;;;;3.10;0.65;;;19.70;99.90;;;;;;4954313;29;20672;-38
2023/10/14 09:56:10;;;;;;;6.00;1.40;;;19.80;99.90;;;;;;4954197;29;20023;-37
2023/10/14 09:58:42;;;;;;;4.68;0.77;;;19.80;99.90;;;;;;4954149;29;20027;-37
2023/10/14 10:01:16;;;;;;;4.85;1.00;;;19.80;99.90;;;;;;4954321;29;20035;-37
2023/10/14 10:03:45;;;;;;;6.63;0.93;;;19.80;99.90;;;;;;4954159;29;20038;-37
2023/10/14 10:06:24;;;;;;;6.53;0.80;;;19.80;99.90;;;;;;4953960;29;20054;-37
2023/10/14 10:09:34;;;;;;;2.47;0.80;;;19.80;99.90;;;;;;4954470;29;20035;-37
2023/10/14 10:12:04;;;;;;;2.38;0.70;;;19.80;99.90;;;;;;4953981;29;20131;-37
2023/10/14 10:14:45;;;;;;;2.80;0.80;;;19.90;99.90;;;;;;4954012;29;20023;-37
2023/10/14 10:17:12;;;;;;;5.00;0.65;;;19.90;99.90;;;;;;4954164;29;20027;-38
2023/10/14 10:20:10;;;;;;;3.78;0.50;;;19.80;99.90;;;;;;4953992;29;20106;-38
2023/10/14 10:22:43;;;;;;;3.25;0.70;;;19.90;99.90;;;;;;4953991;29;20047;-37
2023/10/14 10:25:14;;;;;;;2.38;0.60;;;19.90;99.90;;;;;;4954495;29;20035;-37
2023/10/14 10:27:42;;;;;;;4.68;0.88;;;19.90;99.90;;;;;;4954099;29;20031;-37
2023/10/14 10:30:11;;;;;;;2.47;0.60;;;19.90;99.90;;;;;;4954131;29;20473;-37
2023/10/14 10:32:48;;;;;;;1.55;0.52;;;19.90;99.90;;;;;;4937353;29;20066;-37
2023/10/14 10:35:20;;;;;;;3.88;0.60;;;19.90;99.90;;;;;;4954995;29;20047;-38
2023/10/14 10:37:53;;;;;;;3.97;0.70;;;19.90;99.90;;;;;;4954241;29;20089;-39
2023/10/14 10:40:25;;;;;;;3.72;0.65;;;19.90;99.90;;;;;;4953498;29;20508;-37
2023/10/14 10:43:11;;;;;;;1.48;0.40;;;19.90;99.90;;;;;;4953545;29;20090;-38
2023/10/14 10:45:42;;;;;;;3.83;0.70;;;19.90;99.90;;;;;;4953639;28;20098;-39
2023/10/14 10:48:14;;;;;;;1.42;0.50;;;20.00;99.90;;;;;;4954569;29;20404;-38
2023/10/14 10:50:41;;;;;;;2.30;0.38;;;19.90;99.90;;;;;;4953420;29;20027;-42
2023/10/14 10:53:10;;;;;;;2.17;0.50;;;20.00;99.90;;;;;;4953243;29;20078;-38
2023/10/14 10:55:46;;;;;;;3.22;0.52;;;20.00;99.90;;;;;;4953212;29;20042;-37
2023/10/14 10:58:12;;;;;;;1.45;0.50;;;20.00;99.90;;;;;;4953234;29;20031;-39
2023/10/14 11:00:45;;;;;;;4.80;0.52;;;20.00;99.90;;;;;;4953678;29;20497;-38
2023/10/14 11:03:14;;;;;;;1.80;0.35;;;20.00;99.90;;;;;;4953319;29;20485;-38
2023/10/14 11:05:43;;;;;;;2.10;0.60;;;20.00;99.90;;;;;;4953010;29;20024;-40
2023/10/14 11:08:10;;;;;;;1.80;0.52;;;20.00;99.90;;;;;;4935976;29;20070;-41
2023/10/14 11:10:44;;;;;;;1.45;0.30;;;20.00;99.90;;;;;;4953132;29;20069;-38
2023/10/14 11:13:11;;;;;;;2.00;0.43;;;20.00;99.90;;;;;;4953297;29;20385;-39
2023/10/14 11:15:38;;;;;;;2.67;0.70;;;20.00;99.90;;;;;;4953090;29;20019;-38
2023/10/14 11:18:05;;;;;;;3.63;0.30;;;20.00;99.90;;;;;;4953019;29;20034;-41
2023/10/14 11:20:33;;;;;;;1.27;0.38;;;20.00;99.90;;;;;;4953084;29;20031;-38
2023/10/14 11:23:00;;;;;;;2.97;0.38;;;20.00;99.90;;;;;;4953103;29;20035;-38
2023/10/14 11:25:30;;;;;;;2.45;0.40;;;20.00;99.90;;;;;;4952996;29;20030;-39
2023/10/14 11:27:57;;;;;;;1.88;0.60;;;20.00;99.90;;;;;;4953006;29;20400;-38
2023/10/14 11:30:29;;;;;;;1.30;0.35;;;20.00;99.90;;;;;;4952852;29;20503;-38
2023/10/14 11:32:58;;;;;;;1.38;0.47;;;20.00;99.90;;;;;;4953419;29;20045;-40
2023/10/14 11:35:29;;;;;;;1.77;0.40;;;20.00;99.90;;;;;;4952934;29;20019;-38
2023/10/14 11:38:00;;;;;;;1.42;0.30;;;20.00;99.90;;;;;;4952976;29;20674;-38
2023/10/14 11:40:33;;;;;;;0.93;0.30;;;20.00;99.90;;;;;;4952804;29;20519;-38
2023/10/14 11:42:59;;;;;;;1.15;0.20;;;20.00;99.90;;;;;;4952885;29;20625;-38
2023/10/14 11:45:25;;;;;;;2.97;0.35;;;20.00;99.90;;;;;;4935840;29;20155;-38
2023/10/14 11:47:53;;;;;;;0.80;0.22;;;20.00;99.90;;;;;;4952909;29;20027;-38
2023/10/14 11:50:20;;;;;;;2.42;0.50;;;20.00;99.90;;;;;;4952799;29;20036;-38
2023/10/14 11:52:52;;;;;;;1.35;0.30;;;20.00;99.90;;;;;;4952943;29;20070;-37
2023/10/14 11:55:19;;;;;;;1.55;0.50;;;20.00;99.90;;;;;;4952746;29;20019;-39
2023/10/14 11:57:48;;;;;;;1.25;0.32;;;20.00;99.90;;;;;;4955561;28;20399;-38
2023/10/14 12:00:20;;;;;;;1.80;0.50;;;20.00;99.90;;;;;;4956274;29;20062;-39
2023/10/14 12:02:50;;;;;;;1.00;0.30;;;20.00;99.90;;;;;;4956305;29;20020;-37
2023/10/14 12:05:16;;;;;;;1.73;0.20;;;20.00;99.90;;;;;;4956217;29;20305;-38
2023/10/14 12:07:43;;;;;;;0.82;0.32;;;20.00;99.90;;;;;;4956272;29;20066;-38
2023/10/14 12:10:10;;;;;;;2.10;0.47;;;20.00;99.90;;;;;;4955968;29;20543;-41
2023/10/14 12:12:38;;;;;;;1.70;0.43;;;20.00;99.90;;;;;;4956438;29;20030;-38
2023/10/14 12:15:06;;;;;;;3.10;0.40;;;20.00;99.90;;;;;;4956125;29;20082;-38
2023/10/14 12:17:34;;;;;;;0.43;0.20;;;20.00;99.90;;;;;;4956099;29;20050;-37
2023/10/14 12:20:04;;;;;;;1.27;0.30;;;20.00;99.90;;;;;;4956034;29;20026;-37
2023/10/14 12:22:31;;;;;;;1.05;0.35;;;20.00;99.90;;;;;;4955914;29;20122;-39
2023/10/14 12:24:56;;;;;;;1.80;0.47;;;20.00;99.90;;;;;;4955801;29;20548;-37
2023/10/14 12:27:25;;;;;;;1.80;0.38;;;20.00;99.90;;;;;;4956099;29;20122;-38
2023/10/14 12:29:51;;;;;;;0.40;0.20;;;20.00;99.90;;;;;;4955716;29;20019;-38
2023/10/14 12:32:17;;;;;;;0.50;0.20;;;20.00;99.90;;;;;;4955963;29;20388;-39
2023/10/14 12:34:44;;;;;;;1.45;0.28;;;20.00;99.90;;;;;;4938443;29;20023;-37
2023/10/14 12:37:21;;;;;;;1.00;0.40;;;20.00;99.90;;;;;;4955515;29;20078;-37
2023/10/14 12:39:55;;;;;;;0.70;0.30;;;20.00;99.90;;;;;;4955641;29;20088;-37
2023/10/14 12:42:23;;;;;;;;;;;20.00;99.90;;;;;;4956105;29;20027;-38
2023/10/14 12:44:52;;;;;;;0.90;0.40;;;20.00;99.90;;;;;;4955498;29;19917;-38
2023/10/14 12:47:23;;;;;;;0.28;0.20;;;20.00;99.90;;;;;;4955472;29;20046;-38
2023/10/14 12:49:50;;;;;;;1.33;0.30;;;20.00;99.90;;;;;;4955193;29;20027;-38
2023/10/14 12:52:19;;;;;;;0.63;0.40;;;20.00;99.90;;;;;;4956436;29;20074;-38
2023/10/14 12:54:54;;;;;;;1.63;0.50;;;20.00;99.90;;;;;;4956701;29;20508;-38
2023/10/14 12:57:21;;;;;;;0.70;0.32;;;19.90;99.90;;;;;;4955347;28;20035;-40
2023/10/14 12:59:47;;;;;;;1.75;0.40;;;20.00;99.90;;;;;;4955320;29;20019;-40
2023/10/14 13:02:17;;;;;;;1.10;0.30;;;19.90;99.90;;;;;;4955195;29;20035;-40
2023/10/14 13:04:44;;;;;;;0.50;0.20;;;19.90;99.90;;;;;;4937933;29;20426;-40
2023/10/14 13:07:10;;;;;;;1.80;0.40;;;20.00;99.90;;;;;;4954890;28;20444;-40
2023/10/14 13:09:38;;;;;;;1.35;0.40;;;20.00;99.90;;;;;;4954182;29;20156;-40
2023/10/14 13:12:15;;;;;;;0.63;0.20;;;19.90;99.90;;;;;;4955114;29;20031;-39
2023/10/14 13:14:42;;;;;;;1.50;0.40;;;19.90;99.90;;;;;;4954814;29;20031;-37
2023/10/14 13:17:08;;;;;;;0.95;0.40;;;19.90;99.90;;;;;;4955136;29;20038;-37
2023/10/14 13:19:36;;;;;;;0.65;0.30;;;19.90;99.90;;;;;;4954948;29;20031;-35
2023/10/14 13:22:09;;;;;;;1.58;0.40;;;19.90;99.90;;;;;;4954895;29;20031;-36
2023/10/14 13:24:36;;;;;;;1.08;0.30;;;19.90;99.90;;;;;;4954863;29;20035;-37
2023/10/14 13:27:01;;;;;;;0.95;0.50;;;19.90;99.90;;;;;;4954729;29;20396;-37
2023/10/14 13:29:27;;;;;;;0.28;0.13;;;19.90;99.90;;;;;;4954516;29;20038;-35
2023/10/14 13:31:53;;;;;;;1.65;0.50;;;19.90;99.90;;;;;;4954849;29;20034;-35
2023/10/14 13:34:20;;;;;;;1.17;0.35;;;19.90;99.90;;;;;;4954698;29;20055;-35
2023/10/14 13:36:46;;;;;;;0.93;0.40;;;19.90;99.90;;;;;;4954652;29;20020;-35
2023/10/14 13:39:15;;;;;;;0.82;0.45;;;19.90;99.90;;;;;;4954942;29;20111;-39
2023/10/14 13:41:43;;;;;;;1.00;0.57;;;19.90;99.90;;;;;;4954477;29;20362;-35